createdAt,value
2023-03-26T00:01:39.366Z,98143.94
2023-03-26T00:04:07.763Z,98146.38
2023-03-26T00:06:39.285Z,98148.00
2023-03-26T00:09:09.841Z,98146.38
2023-03-26T00:11:37.029Z,98136.72
2023-03-26T00:14:05.750Z,98132.41
2023-03-26T00:16:33.404Z,98128.28
2023-03-26T00:19:01.883Z,98134.63
2023-03-26T00:21:30.975Z,98129.28
2023-03-26T00:24:04.590Z,98129.09
2023-03-26T00:26:38.493Z,98137.94
2023-03-26T00:29:07.010Z,98134.91
2023-03-26T00:31:35.929Z,98148.28
2023-03-26T00:34:03.963Z,98139.31
2023-03-26T00:36:31.491Z,98146.47
2023-03-26T00:38:58.832Z,98150.59
2023-03-26T00:41:31.154Z,98140.34
2023-03-26T00:43:59.950Z,98137.84
2023-03-26T00:46:29.787Z,98132.91
2023-03-26T00:48:59.079Z,98125.13
2023-03-26T00:51:28.285Z,98121.03
2023-03-26T00:53:55.986Z,98125.34
2023-03-26T00:56:23.272Z,98121.03
2023-03-26T00:58:50.679Z,98121.03
2023-03-26T01:01:27.520Z,98113.66
2023-03-26T01:04:08.210Z,98110.59
2023-03-26T01:06:39.147Z,98105.47
2023-03-26T01:09:16.315Z,98103.28
2023-03-26T01:11:44.393Z,98106.75
2023-03-26T01:14:16.305Z,98103.84
2023-03-26T01:16:50.139Z,98104.28
2023-03-26T01:19:45.272Z,98114.38
2023-03-26T01:22:22.134Z,98109.28
2023-03-26T01:24:53.908Z,98107.38
2023-03-26T01:27:35.908Z,98110.25
2023-03-26T01:30:10.605Z,98113.53
2023-03-26T01:32:47.724Z,98105.53
2023-03-26T01:35:29.166Z,98097.31
2023-03-26T01:38:02.096Z,98100.59
2023-03-26T01:40:43.125Z,98100.00
2023-03-26T01:43:24.539Z,98093.19
2023-03-26T01:45:52.833Z,98097.72
2023-03-26T01:48:20.783Z,98096.94
2023-03-26T01:50:49.107Z,98098.53
2023-03-26T01:53:16.185Z,98086.81
2023-03-26T01:56:02.479Z,98098.72
2023-03-26T01:58:37.346Z,98092.56
2023-03-26T02:01:19.743Z,98088.25
2023-03-26T02:04:11.400Z,98087.91
2023-03-26T02:06:46.250Z,98079.13
2023-03-26T02:09:20.371Z,98075.63
2023-03-26T02:11:49.007Z,98080.16
2023-03-26T02:14:16.564Z,98076.03
2023-03-26T02:16:47.054Z,98071.94
2023-03-26T02:19:21.820Z,98069.03
2023-03-26T02:21:51.727Z,98075.00
2023-03-26T02:24:20.634Z,98066.16
2023-03-26T02:26:49.988Z,98067.59
2023-03-26T02:29:20.533Z,98075.63
2023-03-26T02:31:49.687Z,98077.66
2023-03-26T02:34:17.210Z,98080.16
2023-03-26T02:36:52.583Z,98079.34
2023-03-26T02:39:19.843Z,98072.75
2023-03-26T02:41:54.909Z,98070.69
2023-03-26T02:44:22.156Z,98070.69
2023-03-26T02:46:58.314Z,98069.22
2023-03-26T02:49:44.081Z,98064.09
2023-03-26T02:52:18.761Z,98058.75
2023-03-26T02:54:48.536Z,98061.22
2023-03-26T02:57:20.940Z,98056.31
2023-03-26T03:00:26.582Z,98061.03
2023-03-26T03:03:26.689Z,98053.25
2023-03-26T03:05:59.605Z,98049.78
2023-03-26T03:08:46.598Z,98049.78
2023-03-26T03:11:22.290Z,98051.44
2023-03-26T03:13:51.515Z,98042.63
2023-03-26T03:16:24.816Z,98048.53
2023-03-26T03:18:57.768Z,98038.91
2023-03-26T03:21:36.265Z,98040.34
2023-03-26T03:24:03.998Z,98034.19
2023-03-26T03:26:36.620Z,98041.97
2023-03-26T03:29:22.024Z,98037.69
2023-03-26T03:31:49.558Z,98035.03
2023-03-26T03:34:33.474Z,98026.59
2023-03-26T03:37:00.782Z,98024.31
2023-03-26T03:39:35.030Z,98017.31
2023-03-26T03:42:02.438Z,98014.41
2023-03-26T03:44:29.835Z,98015.84
2023-03-26T03:46:57.428Z,98008.03
2023-03-26T03:49:24.512Z,98014.78
2023-03-26T03:51:51.789Z,98007.81
2023-03-26T03:54:28.605Z,98002.03
2023-03-26T03:57:10.235Z,98007.78
2023-03-26T03:59:53.206Z,98010.25
2023-03-26T04:02:26.608Z,98009.00
2023-03-26T04:04:58.571Z,98003.53
2023-03-26T04:07:26.759Z,98007.00
2023-03-26T04:10:08.848Z,98008.19
2023-03-26T04:12:54.576Z,97999.72
2023-03-26T04:15:36.318Z,97998.25
2023-03-26T04:18:04.051Z,97990.84
2023-03-26T04:20:32.281Z,97996.59
2023-03-26T04:23:00.724Z,97995.78
2023-03-26T04:25:30.553Z,97992.69
2023-03-26T04:28:08.732Z,97985.50
2023-03-26T04:30:49.038Z,97985.66
2023-03-26T04:33:33.751Z,97971.25
2023-03-26T04:36:03.197Z,97976.13
2023-03-26T04:38:45.984Z,97969.75
2023-03-26T04:41:15.953Z,97971.38
2023-03-26T04:43:53.602Z,97967.97
2023-03-26T04:46:33.807Z,97967.72
2023-03-26T04:49:11.139Z,97966.41
2023-03-26T04:51:42.042Z,97961.75
2023-03-26T04:54:29.123Z,97960.63
2023-03-26T04:57:06.305Z,97958.13
2023-03-26T04:59:43.125Z,97947.06
2023-03-26T05:02:14.190Z,97948.63
2023-03-26T05:04:59.330Z,97950.25
2023-03-26T05:07:30.433Z,97945.34
2023-03-26T05:10:03.567Z,97942.59
2023-03-26T05:12:52.775Z,97953.22
2023-03-26T05:15:28.472Z,97943.09
2023-03-26T05:18:16.903Z,97944.72
2023-03-26T05:20:48.735Z,97940.56
2023-03-26T05:23:15.761Z,97940.00
2023-03-26T05:25:47.290Z,97945.09
2023-03-26T05:28:24.818Z,97946.91
2023-03-26T05:30:56.528Z,97946.28
2023-03-26T05:33:27.268Z,97949.41
2023-03-26T05:36:08.067Z,97947.41
2023-03-26T05:38:35.953Z,97942.06
2023-03-26T05:41:08.291Z,97948.66
2023-03-26T05:43:37.657Z,97938.41
2023-03-26T05:46:12.483Z,97945.47
2023-03-26T05:48:39.722Z,97943.78
2023-03-26T05:51:08.273Z,97937.97
2023-03-26T05:53:39.580Z,97941.56
2023-03-26T05:56:26.596Z,97932.84
2023-03-26T05:59:12.601Z,97933.59
2023-03-26T06:01:58.102Z,97924.28
2023-03-26T06:04:46.072Z,97908.69
2023-03-26T06:07:34.105Z,97916.69
2023-03-26T06:10:18.398Z,97908.44
2023-03-26T06:12:46.572Z,97915.06
2023-03-26T06:15:14.058Z,97908.38
2023-03-26T06:17:58.553Z,97900.50
2023-03-26T06:20:37.676Z,97894.59
2023-03-26T06:23:16.228Z,97892.13
2023-03-26T06:26:01.867Z,97886.41
2023-03-26T06:28:58.304Z,97881.44
2023-03-26T06:31:44.175Z,97884.72
2023-03-26T06:34:16.284Z,97881.22
2023-03-26T06:36:43.269Z,97879.50
2023-03-26T06:39:10.751Z,97881.72
2023-03-26T06:41:45.430Z,97870.97
2023-03-26T06:44:39.322Z,97869.06
2023-03-26T06:47:24.902Z,97858.06
2023-03-26T06:50:12.038Z,97860.47
2023-03-26T06:53:05.072Z,97854.25
2023-03-26T06:55:54.105Z,97864.13
2023-03-26T06:58:39.466Z,97849.69
2023-03-26T07:01:21.934Z,97848.06
2023-03-26T07:04:07.361Z,97849.03
2023-03-26T07:06:52.977Z,97846.13
2023-03-26T07:09:38.456Z,97842.03
2023-03-26T07:12:44.123Z,97842.38
2023-03-26T07:15:37.314Z,97828.91
2023-03-26T07:18:10.473Z,97829.56
2023-03-26T07:20:39.695Z,97820.97
2023-03-26T07:23:07.500Z,97816.50
2023-03-26T07:25:53.022Z,97814.81
2023-03-26T07:29:04.666Z,97802.09
2023-03-26T07:31:48.171Z,97806.09
2023-03-26T07:34:55.933Z,97811.88
2023-03-26T07:37:39.735Z,97811.75
2023-03-26T07:40:36.165Z,97812.94
2023-03-26T07:43:41.704Z,97818.50
2023-03-26T07:46:12.164Z,97813.38
2023-03-26T07:48:51.937Z,97802.97
2023-03-26T07:51:34.599Z,97797.34
2023-03-26T07:54:13.382Z,97790.88
2023-03-26T07:57:06.864Z,97791.47
2023-03-26T07:59:51.177Z,97784.72
2023-03-26T08:02:52.269Z,97786.38
2023-03-26T08:06:02.075Z,97790.66
2023-03-26T08:08:40.371Z,97797.81
2023-03-26T08:11:58.357Z,97791.22
2023-03-26T08:14:25.372Z,97799.88
2023-03-26T08:17:04.358Z,97781.16
2023-03-26T08:19:40.929Z,97774.03
2023-03-26T08:22:20.905Z,97755.44
2023-03-26T08:25:20.148Z,97767.91
2023-03-26T08:27:55.947Z,97780.59
2023-03-26T08:30:25.569Z,97775.63
2023-03-26T08:33:00.008Z,97764.69
2023-03-26T08:35:28.668Z,97768.09
2023-03-26T08:37:55.916Z,97768.09
2023-03-26T08:40:58.362Z,97763.50
2023-03-26T08:43:31.253Z,97753.19
2023-03-26T08:46:17.132Z,97745.34
2023-03-26T08:49:16.888Z,97749.28
2023-03-26T08:52:00.740Z,97753.13
2023-03-26T08:54:57.116Z,97743.78
2023-03-26T08:57:52.474Z,97743.41
2023-03-26T09:00:37.989Z,97733.53
2023-03-26T09:03:25.540Z,97728.44
2023-03-26T09:06:17.070Z,97721.41
2023-03-26T09:09:04.695Z,97726.75
2023-03-26T09:11:54.656Z,97722.75
2023-03-26T09:14:46.208Z,97724.81
2023-03-26T09:17:28.648Z,97733.88
2023-03-26T09:20:02.640Z,97736.38
2023-03-26T09:22:32.865Z,97725.06
2023-03-26T09:25:14.752Z,97731.84
2023-03-26T09:28:22.035Z,97727.78
2023-03-26T09:31:07.725Z,97720.88
2023-03-26T09:33:53.989Z,97721.31
2023-03-26T09:36:45.970Z,97713.88
2023-03-26T09:39:39.273Z,97706.13
2023-03-26T09:42:24.630Z,97696.13
2023-03-26T09:45:10.704Z,97689.38
2023-03-26T09:47:56.481Z,97677.63
2023-03-26T09:50:56.590Z,97686.53
2023-03-26T09:53:41.829Z,97689.91
2023-03-26T09:56:24.034Z,97681.50
2023-03-26T09:59:09.373Z,97680.81
2023-03-26T10:02:04.628Z,97689.47
2023-03-26T10:05:04.843Z,97686.88
2023-03-26T10:07:40.847Z,97686.94
2023-03-26T10:10:45.165Z,97683.47
2023-03-26T10:13:18.466Z,97684.97
2023-03-26T10:16:24.625Z,97685.91
2023-03-26T10:19:10.545Z,97670.22
2023-03-26T10:21:51.339Z,97671.41
2023-03-26T10:24:30.486Z,97672.66
2023-03-26T10:27:08.397Z,97675.50
2023-03-26T10:30:16.864Z,97668.91
2023-03-26T10:33:05.289Z,97669.78
2023-03-26T10:35:42.112Z,97682.25
2023-03-26T10:38:47.025Z,97666.97
2023-03-26T10:41:23.040Z,97661.47
2023-03-26T10:44:27.723Z,97660.75
2023-03-26T10:47:01.198Z,97664.44
2023-03-26T10:49:54.097Z,97666.72
2023-03-26T10:52:34.652Z,97657.19
2023-03-26T10:55:12.186Z,97656.66
2023-03-26T10:57:52.271Z,97652.94
2023-03-26T11:00:25.574Z,97653.69
2023-03-26T11:03:20.842Z,97655.59
2023-03-26T11:05:58.364Z,97655.75
2023-03-26T11:08:52.812Z,97643.47
2023-03-26T11:11:32.690Z,97656.13
2023-03-26T11:14:13.692Z,97647.09
2023-03-26T11:16:49.643Z,97644.69
2023-03-26T11:19:37.313Z,97641.47
2023-03-26T11:22:32.328Z,97632.41
2023-03-26T11:25:05.744Z,97646.28
2023-03-26T11:27:44.662Z,97642.16
2023-03-26T11:30:17.628Z,97634.41
2023-03-26T11:32:48.471Z,97635.78
2023-03-26T11:35:40.477Z,97641.19
2023-03-26T11:38:33.651Z,97636.31
2023-03-26T11:41:03.801Z,97635.09
2023-03-26T11:44:28.898Z,97632.22
2023-03-26T11:47:01.741Z,97646.91
2023-03-26T11:49:29.627Z,97635.69
2023-03-26T11:51:56.927Z,97637.41
2023-03-26T11:54:23.987Z,97635.78
2023-03-26T11:57:12.283Z,97638.66
2023-03-26T11:59:56.367Z,97637.25
2023-03-26T12:02:29.920Z,97643.16
2023-03-26T12:05:12.988Z,97632.47
2023-03-26T12:07:52.937Z,97636.31
2023-03-26T12:10:33.007Z,97631.81
2023-03-26T12:13:03.428Z,97632.25
2023-03-26T12:15:32.368Z,97626.00
2023-03-26T12:18:17.731Z,97624.72
2023-03-26T12:20:45.344Z,97626.72
2023-03-26T12:23:42.621Z,97619.56
2023-03-26T12:26:19.327Z,97616.69
2023-03-26T12:28:49.734Z,97617.28
2023-03-26T12:31:19.677Z,97608.47
2023-03-26T12:34:35.559Z,97614.41
2023-03-26T12:37:05.030Z,97605.91
2023-03-26T12:40:10.555Z,97607.66
2023-03-26T12:44:49.991Z,97610.63
2023-03-26T12:45:31.467Z,97591.00
2023-03-26T12:48:03.873Z,97603.88
2023-03-26T12:50:57.783Z,97599.25
2023-03-26T12:53:53.646Z,97602.41
2023-03-26T12:56:37.003Z,97596.66
2023-03-26T12:59:42.996Z,97605.13
2023-03-26T13:02:48.765Z,97591.75
2023-03-26T13:05:34.499Z,97600.16
2023-03-26T13:08:25.988Z,97599.34
2023-03-26T13:11:17.886Z,97605.53
2023-03-26T13:13:52.970Z,97599.13
2023-03-26T13:16:44.934Z,97600.50
2023-03-26T13:19:34.379Z,97605.81
2023-03-26T13:22:25.740Z,97598.56
2023-03-26T13:25:25.132Z,97605.09
2023-03-26T13:28:26.745Z,97598.94
2023-03-26T13:31:07.651Z,97603.00
2023-03-26T13:33:46.996Z,97600.34
2023-03-26T13:36:31.890Z,97595.47
2023-03-26T13:39:08.380Z,97594.84
2023-03-26T13:41:47.430Z,97594.94
2023-03-26T13:44:49.705Z,97598.56
2023-03-26T13:47:22.661Z,97594.50
2023-03-26T13:50:02.772Z,97592.28
2023-03-26T13:52:40.078Z,97584.28
2023-03-26T13:55:27.398Z,97580.34
2023-03-26T13:58:12.403Z,97576.38
2023-03-26T14:01:12.477Z,97580.66
2023-03-26T14:04:01.081Z,97586.28
2023-03-26T14:06:59.220Z,97591.78
2023-03-26T14:09:43.139Z,97583.91
2023-03-26T14:12:44.763Z,97591.47
2023-03-26T14:15:16.604Z,97592.50
2023-03-26T14:17:59.015Z,97594.94
2023-03-26T14:20:50.374Z,97596.97
2023-03-26T14:23:20.328Z,97599.78
2023-03-26T14:26:08.429Z,97591.97
2023-03-26T14:28:54.083Z,97588.41
2023-03-26T14:31:38.802Z,97584.81
2023-03-26T14:34:38.629Z,97588.06
2023-03-26T14:37:27.019Z,97587.59
2023-03-26T14:40:15.190Z,97586.78
2023-03-26T14:43:08.114Z,97585.53
2023-03-26T14:45:41.521Z,97589.09
2023-03-26T14:48:27.964Z,97585.16
2023-03-26T14:51:07.339Z,97582.44
2023-03-26T14:53:40.519Z,97584.66
2023-03-26T14:56:15.664Z,97583.94
2023-03-26T14:59:04.754Z,97583.94
2023-03-26T15:01:59.146Z,97588.69
2023-03-26T15:04:35.401Z,97584.41
2023-03-26T15:07:39.153Z,97578.44
2023-03-26T15:10:54.032Z,97574.72
2023-03-26T15:13:55.092Z,97575.44
2023-03-26T15:17:11.070Z,97576.97
2023-03-26T15:20:00.089Z,97575.00
2023-03-26T15:22:45.791Z,97573.53
2023-03-26T15:25:33.980Z,97579.63
2023-03-26T15:28:19.728Z,97567.69
2023-03-26T15:31:18.757Z,97568.41
2023-03-26T15:34:12.310Z,97571.41
2023-03-26T15:36:59.062Z,97572.94
2023-03-26T15:40:10.037Z,97576.56
2023-03-26T15:42:58.764Z,97573.69
2023-03-26T15:45:48.090Z,97574.34
2023-03-26T15:48:59.436Z,97578.75
2023-03-26T15:51:46.365Z,97583.34
2023-03-26T15:54:33.318Z,97580.38
2023-03-26T15:57:24.985Z,97580.00
2023-03-26T15:59:52.381Z,97582.00
2023-03-26T16:02:58.312Z,97587.78
2023-03-26T16:06:06.279Z,97579.78
2023-03-26T16:09:11.706Z,97582.16
2023-03-26T16:11:54.318Z,97589.56
2023-03-26T16:14:24.627Z,97581.13
2023-03-26T16:16:56.080Z,97573.13
2023-03-26T16:19:23.150Z,97582.97
2023-03-26T16:22:00.380Z,97581.72
2023-03-26T16:24:30.809Z,97582.97
2023-03-26T16:27:08.340Z,97588.94
2023-03-26T16:30:01.131Z,97591.53
2023-03-26T16:32:34.861Z,97583.88
2023-03-26T16:35:24.102Z,97592.69
2023-03-26T16:38:05.974Z,97588.75
2023-03-26T16:40:36.249Z,97583.06
2023-03-26T16:43:31.006Z,97593.41
2023-03-26T16:46:20.049Z,97588.59
2023-03-26T16:48:55.629Z,97589.41
2023-03-26T16:51:53.799Z,97593.28
2023-03-26T16:54:39.835Z,97589.38
2023-03-26T16:57:45.606Z,97594.63
2023-03-26T17:00:46.240Z,97592.47
2023-03-26T17:03:27.208Z,97593.75
2023-03-26T17:05:54.176Z,97592.63
2023-03-26T17:08:42.251Z,97595.53
2023-03-26T17:11:38.569Z,97595.06
2023-03-26T17:14:23.628Z,97598.91
2023-03-26T17:17:02.760Z,97588.25
2023-03-26T17:19:42.027Z,97598.56
2023-03-26T17:22:42.557Z,97593.16
2023-03-26T17:25:52.747Z,97601.88
2023-03-26T17:29:04.248Z,97597.94
2023-03-26T17:31:59.649Z,97596.31
2023-03-26T17:34:38.575Z,97596.53
2023-03-26T17:37:21.559Z,97593.50
2023-03-26T17:39:58.014Z,97596.53
2023-03-26T17:42:33.162Z,97587.06
2023-03-26T17:45:02.856Z,97588.69
2023-03-26T17:47:41.674Z,97592.03
2023-03-26T17:50:14.725Z,97589.06
2023-03-26T17:53:05.368Z,97584.25
2023-03-26T17:55:36.629Z,97589.22
2023-03-26T17:58:06.932Z,97587.16
2023-03-26T18:00:47.305Z,97592.69
2023-03-26T18:03:31.248Z,97588.84
2023-03-26T18:06:11.288Z,97589.06
2023-03-26T18:08:56.862Z,97584.03
2023-03-26T18:11:26.782Z,97579.50
2023-03-26T18:14:38.880Z,97581.13
2023-03-26T18:17:07.320Z,97583.94
2023-03-26T18:19:53.628Z,97582.84
2023-03-26T18:22:27.834Z,97576.41
2023-03-26T18:24:59.900Z,97584.34
2023-03-26T18:27:38.628Z,97583.59
2023-03-26T18:30:16.344Z,97581.28
2023-03-26T18:33:05.293Z,97590.56
2023-03-26T18:35:39.802Z,97587.97
2023-03-26T18:38:14.424Z,97578.63
2023-03-26T18:40:44.275Z,97581.13
2023-03-26T18:43:32.307Z,97571.44
2023-03-26T18:46:03.007Z,97573.13
2023-03-26T18:48:30.426Z,97574.03
2023-03-26T18:51:04.791Z,97567.50
2023-03-26T18:53:39.919Z,97573.13
2023-03-26T18:56:31.910Z,97578.03
2023-03-26T18:59:00.644Z,97578.09
2023-03-26T19:01:32.176Z,97577.66
2023-03-26T19:04:07.171Z,97578.03
2023-03-26T19:06:40.072Z,97574.31
2023-03-26T19:09:27.933Z,97580.25
2023-03-26T19:12:05.519Z,97576.97
2023-03-26T19:14:37.154Z,97583.81
2023-03-26T19:17:07.132Z,97579.19
2023-03-26T19:19:37.156Z,97574.84
2023-03-26T19:22:06.123Z,97577.22
2023-03-26T19:24:34.353Z,97576.84
2023-03-26T19:27:02.848Z,97568.84
2023-03-26T19:29:35.262Z,97564.91
2023-03-26T19:32:15.571Z,97568.41
2023-03-26T19:34:45.496Z,97566.97
2023-03-26T19:37:31.555Z,97558.00
2023-03-26T19:40:14.381Z,97562.19
2023-03-26T19:42:44.786Z,97558.81
2023-03-26T19:45:18.117Z,97560.25
2023-03-26T19:47:48.667Z,97558.63
2023-03-26T19:50:26.122Z,97568.16
2023-03-26T19:53:17.294Z,97565.13
2023-03-26T19:55:59.294Z,97557.72
2023-03-26T19:58:27.401Z,97555.63
2023-03-26T20:00:56.543Z,97560.50
2023-03-26T20:03:46.369Z,97565.66
2023-03-26T20:06:18.539Z,97564.59
2023-03-26T20:08:46.649Z,97570.47
2023-03-26T20:11:20.614Z,97575.00
2023-03-26T20:13:48.610Z,97587.66
2023-03-26T20:16:34.359Z,97577.41
2023-03-26T20:19:02.571Z,97582.19
2023-03-26T20:21:32.407Z,97581.88
2023-03-26T20:23:59.579Z,97581.75
2023-03-26T20:26:26.594Z,97578.72
2023-03-26T20:28:53.973Z,97585.41
2023-03-26T20:31:25.185Z,97584.97
2023-03-26T20:33:54.035Z,97581.28
2023-03-26T20:36:34.173Z,97583.81
2023-03-26T20:39:08.530Z,97585.28
2023-03-26T20:41:38.277Z,97585.38
2023-03-26T20:44:13.877Z,97584.31
2023-03-26T20:46:43.162Z,97590.91
2023-03-26T20:49:11.688Z,97589.72
2023-03-26T20:51:42.058Z,97590.78
2023-03-26T20:54:21.566Z,97600.66
2023-03-26T20:56:49.430Z,97600.97
2023-03-26T20:59:21.835Z,97604.72
2023-03-26T21:01:50.274Z,97601.50
2023-03-26T21:04:17.947Z,97595.00
2023-03-26T21:06:45.607Z,97607.72
2023-03-26T21:09:18.370Z,97609.94
2023-03-26T21:11:53.119Z,97610.31
2023-03-26T21:14:26.140Z,97603.59
2023-03-26T21:16:53.553Z,97615.44
2023-03-26T21:19:21.205Z,97616.03
2023-03-26T21:21:57.884Z,97612.78
2023-03-26T21:24:33.249Z,97612.94
2023-03-26T21:27:12.809Z,97609.06
2023-03-26T21:29:40.372Z,97607.63
2023-03-26T21:32:10.620Z,97612.09
2023-03-26T21:34:42.121Z,97620.34
2023-03-26T21:37:15.849Z,97624.03
2023-03-26T21:39:44.962Z,97625.66
2023-03-26T21:42:12.918Z,97622.38
2023-03-26T21:44:40.209Z,97630.38
2023-03-26T21:47:09.814Z,97633.06
2023-03-26T21:49:38.615Z,97629.81
2023-03-26T21:52:05.941Z,97635.59
2023-03-26T21:54:33.555Z,97637.72
2023-03-26T21:57:12.808Z,97634.81
2023-03-26T22:00:01.377Z,97640.38
2023-03-26T22:02:54.701Z,97648.81
2023-03-26T22:05:48.363Z,97657.59
2023-03-26T22:08:33.942Z,97653.31
2023-03-26T22:11:01.528Z,97647.16
2023-03-26T22:13:28.774Z,97652.88
2023-03-26T22:15:56.969Z,97646.47
2023-03-26T22:18:26.141Z,97650.34
2023-03-26T22:20:53.385Z,97651.59
2023-03-26T22:23:20.984Z,97667.78
2023-03-26T22:25:48.123Z,97663.91
2023-03-26T22:28:15.699Z,97660.66
2023-03-26T22:30:42.801Z,97655.75
2023-03-26T22:33:12.564Z,97669.50
2023-03-26T22:35:42.095Z,97658.47
2023-03-26T22:38:09.839Z,97664.41
2023-03-26T22:40:37.041Z,97664.66
2023-03-26T22:43:04.732Z,97668.75
2023-03-26T22:45:32.674Z,97673.03
2023-03-26T22:48:03.078Z,97672.84
2023-03-26T22:50:31.529Z,97663.59
2023-03-26T22:52:58.653Z,97666.69
2023-03-26T22:55:29.050Z,97661.59
2023-03-26T22:57:57.584Z,97665.88
2023-03-26T23:00:26.642Z,97668.94
2023-03-26T23:02:55.967Z,97670.78
2023-03-26T23:05:23.789Z,97659.94
2023-03-26T23:07:52.319Z,97657.72
2023-03-26T23:10:19.496Z,97662.03
2023-03-26T23:12:46.716Z,97663.28
2023-03-26T23:15:14.190Z,97661.00
2023-03-26T23:17:41.499Z,97666.13
2023-03-26T23:20:14.758Z,97672.25
2023-03-26T23:22:43.277Z,97664.28
2023-03-26T23:25:11.817Z,97660.38
2023-03-26T23:27:40.363Z,97664.28
2023-03-26T23:30:08.328Z,97661.66
2023-03-26T23:32:38.129Z,97664.09
2023-03-26T23:35:06.177Z,97663.47
2023-03-26T23:37:35.296Z,97652.81
2023-03-26T23:40:07.522Z,97660.00
2023-03-26T23:42:34.658Z,97659.00
2023-03-26T23:45:02.168Z,97662.13
2023-03-26T23:47:34.874Z,97665.25
2023-03-26T23:50:05.440Z,97667.56
2023-03-26T23:52:32.565Z,97656.91
2023-03-26T23:55:02.793Z,97664.69
2023-03-26T23:57:30.702Z,97666.94
2023-03-26T23:59:58.467Z,97656.56
